Time;durP1;ratioP1;P1;durP2;ratioP2;P2;SDS_P1;SDS_P2;PMS_P1;PMS_P2;Temp;Humidity;BMP_temperature;BMP_pressure;BME280_temperature;BME280_humidity;BME280_pressure;Samples;Min_cycle;Max_cycle;Signal;HPM_P1;HPM_P2
2023/03/30 00:02:30;;;;;;;9.50;1.98;;;14.10;99.90;;;13.68;76.32;96933.19;5006344;28;20044;-39
2023/03/30 00:05:01;;;;;;;5.35;2.00;;;14.00;99.90;;;13.63;77.21;96933.44;5007530;28;20065;-39
2023/03/30 00:07:29;;;;;;;5.30;1.83;;;14.00;99.90;;;13.62;76.31;96933.53;5013209;28;20025;-38
2023/03/30 00:09:55;;;;;;;11.95;2.20;;;14.00;99.90;;;13.59;76.62;96925.78;5004837;28;20363;-39
2023/03/30 00:12:21;;;;;;;6.18;2.10;;;13.90;99.90;;;13.61;75.69;96930.03;5011824;28;20350;-39
2023/03/30 00:14:48;;;;;;;8.52;2.28;;;13.90;99.90;;;13.69;73.11;96929.59;5009929;28;20044;-39
2023/03/30 00:17:15;;;;;;;8.10;2.15;;;14.00;99.90;;;13.78;74.49;96933.50;5009575;28;20041;-39
2023/03/30 00:19:40;;;;;;;8.02;2.15;;;14.10;99.90;;;13.83;73.74;96921.69;5009708;28;20033;-39
2023/03/30 00:22:08;;;;;;;15.45;2.33;;;14.10;99.90;;;13.84;73.50;96923.41;5004665;28;20463;-39
2023/03/30 00:24:35;;;;;;;7.88;2.40;;;14.20;99.90;;;13.89;74.17;96926.66;5005942;28;20486;-39
2023/03/30 00:27:01;;;;;;;13.00;2.35;;;14.20;99.90;;;13.91;74.29;96922.13;5005170;28;20057;-39
2023/03/30 00:29:27;;;;;;;9.88;2.03;;;14.20;99.90;;;13.94;74.60;96918.44;5010888;28;20018;-39
2023/03/30 00:31:53;;;;;;;3.55;1.67;;;14.20;99.90;;;13.92;75.23;96909.72;5008748;28;20095;-39
2023/03/30 00:34:19;;;;;;;9.63;1.90;;;14.20;99.90;;;13.91;74.64;96915.97;5005883;28;20033;-40
2023/03/30 00:36:45;;;;;;;10.52;2.33;;;14.20;99.90;;;13.93;74.17;96906.97;5005813;28;20103;-39
2023/03/30 00:39:12;;;;;;;9.05;2.17;;;14.30;99.90;;;13.90;76.60;96901.00;5008421;28;20521;-39
2023/03/30 00:41:38;;;;;;;8.13;2.10;;;14.20;99.90;;;13.86;76.62;96889.72;5011125;28;21082;-39
2023/03/30 00:45:01;;;;;;;10.43;1.88;;;14.20;99.90;;;13.82;76.71;96898.81;4995907;28;20366;-39
2023/03/30 00:47:28;;;;;;;7.38;1.80;;;14.20;99.90;;;13.74;76.92;96879.84;5010055;28;20037;-39
2023/03/30 00:49:54;;;;;;;7.40;2.13;;;14.10;99.90;;;13.73;77.94;96880.78;5004976;28;20136;-39
2023/03/30 00:52:23;;;;;;;6.30;1.95;;;14.10;99.90;;;13.66;78.33;96884.75;5005340;28;20120;-39
2023/03/30 00:54:51;;;;;;;14.68;2.28;;;14.00;99.90;;;13.60;80.24;96879.78;4985355;28;20037;-39
2023/03/30 00:57:21;;;;;;;8.45;1.92;;;13.90;99.90;;;13.55;80.00;96872.09;4994451;28;20124;-39
2023/03/30 00:59:51;;;;;;;7.78;2.28;;;13.90;99.90;;;13.61;79.49;96868.25;4987246;28;20091;-39
2023/03/30 01:02:20;;;;;;;8.13;2.10;;;13.90;99.90;;;13.52;79.75;96859.03;4992245;28;20321;-39
2023/03/30 01:04:49;;;;;;;8.38;2.20;;;13.90;99.90;;;13.54;80.07;96868.59;5005727;28;20033;-39
2023/03/30 01:07:15;;;;;;;10.32;2.40;;;13.90;99.90;;;13.56;81.19;96866.69;4991034;28;20417;-39
2023/03/30 01:09:42;;;;;;;7.88;1.83;;;13.90;99.90;;;13.57;81.34;96867.56;4991876;28;20102;-39
2023/03/30 01:12:09;;;;;;;14.75;2.50;;;13.90;99.90;;;13.62;81.09;96862.88;5008410;28;20033;-39
2023/03/30 01:14:36;;;;;;;9.05;2.20;;;13.90;99.90;;;13.68;81.02;96859.84;5008072;28;20037;-39
2023/03/30 01:17:18;;;;;;;12.80;2.90;;;14.00;99.90;;;13.80;81.30;96862.72;4990600;28;20025;-39
2023/03/30 01:20:23;;;;;;;14.25;3.03;;;14.00;99.90;;;13.76;84.44;96867.34;5004708;28;20110;-39
2023/03/30 01:23:28;;;;;;;10.10;1.90;;;14.10;99.90;;;13.77;85.53;96857.63;5006511;28;20060;-39
2023/03/30 01:26:36;;;;;;;8.27;1.90;;;14.10;99.90;;;13.69;88.04;96861.56;5003488;28;20529;-39
2023/03/30 01:29:40;;;;;;;8.88;2.38;;;14.10;99.90;;;13.72;91.19;96892.31;5001928;28;20041;-39
2023/03/30 01:32:27;;;;;;;10.50;2.58;;;14.00;99.90;;;13.66;97.75;96908.59;4984739;28;20645;-39
2023/03/30 01:35:30;;;;;;;8.77;2.08;;;14.00;99.90;;;13.49;100.00;96889.19;5004080;28;20397;-39
2023/03/30 01:38:32;;;;;;;11.27;2.38;;;13.90;99.90;;;13.35;100.00;96874.09;4970569;28;20204;-39
2023/03/30 01:41:12;;;;;;;11.77;2.80;;;13.70;99.90;;;13.25;100.00;96864.91;5004432;28;20087;-39
2023/03/30 01:43:48;;;;;;;13.88;2.80;;;13.70;99.90;;;13.13;100.00;96855.84;4982058;28;20886;-39
2023/03/30 01:46:29;;;;;;;11.65;1.95;;;13.60;99.90;;;13.06;100.00;96843.91;5006388;28;20056;-39
2023/03/30 01:49:15;;;;;;;13.48;3.08;;;13.40;99.90;;;12.95;100.00;96841.84;5008987;28;20033;-39
2023/03/30 01:52:16;;;;;;;10.05;2.85;;;13.30;99.90;;;12.87;100.00;96867.06;4994062;28;20319;-39
2023/03/30 01:54:50;;;;;;;10.35;2.67;;;13.20;99.90;;;12.83;100.00;96868.13;5009412;28;20610;-39
2023/03/30 01:57:28;;;;;;;9.43;2.83;;;13.20;99.90;;;12.76;100.00;96868.47;4993851;28;20120;-38
2023/03/30 02:00:13;;;;;;;7.63;2.20;;;13.10;99.90;;;12.75;100.00;96869.41;5009575;28;20448;-39
2023/03/30 02:02:45;;;;;;;10.32;2.30;;;13.10;99.90;;;12.77;100.00;96866.69;5012429;28;20661;-39
2023/03/30 02:05:16;;;;;;;9.07;2.45;;;13.10;99.90;;;12.81;100.00;96860.28;4992140;28;20038;-38
2023/03/30 02:07:49;;;;;;;13.73;3.08;;;13.20;99.90;;;12.75;100.00;96856.19;4991733;28;20052;-38
2023/03/30 02:10:18;;;;;;;11.23;2.58;;;13.20;99.90;;;12.75;100.00;96856.19;4989542;28;20080;-38
2023/03/30 02:12:45;;;;;;;11.02;2.70;;;13.10;99.90;;;12.78;100.00;96866.59;5008044;28;20121;-39
2023/03/30 02:15:15;;;;;;;17.08;3.05;;;13.20;99.90;;;12.75;100.00;96876.50;4989345;28;20036;-39
2023/03/30 02:17:41;;;;;;;7.97;2.10;;;13.10;99.90;;;12.72;100.00;96877.53;4997785;28;20084;-38
2023/03/30 02:20:08;;;;;;;14.77;2.60;;;13.10;99.90;;;12.73;100.00;96876.59;5019927;23;20678;-51
2023/03/30 02:22:34;;;;;;;9.80;2.65;;;13.10;99.90;;;12.73;100.00;96879.22;5015392;28;20038;-52
2023/03/30 02:25:01;;;;;;;13.38;2.58;;;13.10;99.90;;;12.70;100.00;96886.47;5028792;28;20051;-51
2023/03/30 02:27:27;;;;;;;8.93;2.33;;;13.10;99.90;;;12.70;100.00;96881.19;5029656;28;20108;-51
2023/03/30 02:29:55;;;;;;;14.07;2.38;;;13.00;99.90;;;12.71;100.00;96889.03;5017684;28;20100;-49
2023/03/30 02:32:25;;;;;;;7.90;2.28;;;13.10;99.90;;;12.73;100.00;96889.81;5008211;28;20029;-51
2023/03/30 02:35:21;;;;;;;13.30;2.65;;;13.10;99.90;;;12.73;100.00;96896.91;5006339;28;20408;-48
2023/03/30 02:38:31;;;;;;;10.43;3.05;;;13.10;99.90;;;12.75;100.00;96889.72;5004887;28;20049;-47
2023/03/30 02:41:28;;;;;;;16.27;3.15;;;13.10;99.90;;;12.79;100.00;96881.56;4980613;28;20042;-52
2023/03/30 02:44:21;;;;;;;11.75;2.63;;;13.10;99.90;;;12.82;100.00;96892.91;5003992;28;20040;-51
2023/03/30 02:47:04;;;;;;;7.82;2.50;;;13.20;99.90;;;12.91;100.00;96880.03;4984846;28;20041;-51
2023/03/30 02:49:45;;;;;;;;;;;13.20;99.90;;;12.95;100.00;96892.13;5005785;28;20163;-51
2023/03/30 02:52:41;;;;;;;13.15;2.25;;;13.30;99.90;;;12.94;100.00;96884.31;4986769;28;19920;-49
2023/03/30 02:55:25;;;;;;;12.30;2.95;;;13.30;99.90;;;12.94;100.00;96871.06;5001634;28;20075;-51
2023/03/30 02:58:07;;;;;;;17.38;2.60;;;13.30;99.90;;;12.90;100.00;96866.88;4988421;28;20030;-51
2023/03/30 03:00:42;;;;;;;11.50;3.42;;;13.20;99.90;;;12.76;100.00;96855.25;5003397;28;20157;-51
2023/03/30 03:03:20;;;;;;;11.35;2.60;;;13.20;99.90;;;12.68;100.00;96852.16;5006940;28;20037;-50
2023/03/30 03:05:46;;;;;;;12.68;3.08;;;13.10;99.90;;;12.64;100.00;96828.63;4987599;28;20092;-51
2023/03/30 03:08:17;;;;;;;9.23;2.67;;;13.00;99.90;;;12.54;100.00;96825.59;5006761;28;20036;-51
2023/03/30 03:10:43;;;;;;;10.75;3.10;;;12.90;99.90;;;12.43;100.00;96825.34;5000225;28;20310;-50
2023/03/30 03:13:09;;;;;;;15.98;2.85;;;12.80;99.90;;;12.31;100.00;96817.13;5001680;28;20037;-51
2023/03/30 03:15:36;;;;;;;10.38;2.38;;;12.70;99.90;;;12.18;100.00;96813.41;5001741;28;20049;-51
2023/03/30 03:18:02;;;;;;;11.95;2.78;;;12.60;99.90;;;12.11;100.00;96819.94;4986046;28;20021;-51
2023/03/30 03:20:29;;;;;;;12.52;2.67;;;12.50;99.90;;;12.06;100.00;96806.13;4992791;28;20084;-50
2023/03/30 03:22:55;;;;;;;11.55;2.88;;;12.40;99.90;;;11.95;100.00;96801.38;4998946;28;20438;-48
2023/03/30 03:25:21;;;;;;;9.93;2.53;;;12.40;99.90;;;11.91;100.00;96805.13;4993776;28;20091;-49
2023/03/30 03:27:47;;;;;;;17.10;3.03;;;12.30;99.90;;;11.89;100.00;96793.75;4994226;28;21430;-47
2023/03/30 03:30:13;;;;;;;8.93;2.65;;;12.30;99.90;;;11.83;100.00;96808.16;4994297;28;20037;-49
2023/03/30 03:32:38;;;;;;;10.52;2.50;;;12.20;99.90;;;11.78;100.00;96805.72;5002485;28;20025;-51
2023/03/30 03:35:04;;;;;;;11.00;2.80;;;12.20;99.90;;;11.78;100.00;96802.25;4992937;28;20210;-49
2023/03/30 03:37:30;;;;;;;10.77;2.75;;;12.20;99.90;;;11.75;100.00;96803.22;4990799;28;20041;-50
2023/03/30 03:39:56;;;;;;;12.90;2.80;;;12.20;99.90;;;11.70;100.00;96789.44;4987230;28;20034;-49
2023/03/30 03:42:22;;;;;;;16.60;3.33;;;12.10;99.90;;;11.67;100.00;96786.94;5000844;28;20487;-50
2023/03/30 03:44:47;;;;;;;13.35;3.00;;;12.10;99.90;;;11.61;100.00;96790.75;4994780;28;20085;-51
2023/03/30 03:47:13;;;;;;;11.85;2.38;;;12.00;99.90;;;11.57;100.00;96785.69;4999920;28;20025;-48
2023/03/30 03:49:39;;;;;;;10.90;2.38;;;12.00;99.90;;;11.55;100.00;96798.13;4989280;28;20038;-50
2023/03/30 03:52:05;;;;;;;10.23;2.40;;;12.00;99.90;;;11.52;100.00;96798.28;4999425;28;20490;-48
2023/03/30 03:54:31;;;;;;;12.23;3.08;;;11.90;99.90;;;11.53;100.00;96800.84;4999593;28;20037;-50
2023/03/30 03:56:57;;;;;;;12.32;3.08;;;12.00;99.90;;;11.51;100.00;96797.44;4999562;28;20045;-46
2023/03/30 03:59:22;;;;;;;14.20;3.33;;;11.90;99.90;;;11.52;100.00;96793.88;4997285;28;20033;-47
2023/03/30 04:01:48;;;;;;;15.65;3.00;;;11.90;99.90;;;11.49;100.00;96791.38;5007557;28;20128;-47
2023/03/30 04:04:14;;;;;;;12.07;2.67;;;11.90;99.90;;;11.48;100.00;96794.94;4998045;28;20171;-47
2023/03/30 04:06:40;;;;;;;9.43;2.90;;;11.90;99.90;;;11.48;100.00;96792.28;4999855;28;20041;-47
2023/03/30 04:09:05;;;;;;;8.68;2.50;;;11.90;99.90;;;11.46;100.00;96787.09;5002788;28;20370;-46
2023/03/30 04:11:31;;;;;;;18.63;2.85;;;11.90;99.90;;;11.45;100.00;96776.63;5005052;28;20077;-46
2023/03/30 04:13:57;;;;;;;18.85;3.25;;;11.90;99.90;;;11.39;100.00;96774.28;5000896;28;20069;-47
2023/03/30 04:16:22;;;;;;;14.60;2.67;;;11.80;99.90;;;11.45;100.00;96768.69;4998486;28;20117;-46
2023/03/30 04:18:48;;;;;;;18.52;2.95;;;11.90;99.90;;;11.45;100.00;96756.34;4995778;28;20053;-46
2023/03/30 04:21:16;;;;;;;9.13;2.38;;;11.90;99.90;;;11.42;100.00;96742.44;4998358;28;20393;-46
2023/03/30 04:23:44;;;;;;;10.65;2.92;;;11.90;99.90;;;11.39;100.00;96732.88;4994708;28;20037;-48
2023/03/30 04:26:12;;;;;;;8.68;2.53;;;11.80;99.90;;;11.39;100.00;96738.16;5003148;28;20065;-46
2023/03/30 04:28:39;;;;;;;10.82;2.85;;;11.80;99.90;;;11.38;100.00;96735.63;4997516;28;20044;-49
2023/03/30 04:31:09;;;;;;;13.55;3.20;;;11.80;99.90;;;11.35;100.00;96728.69;5000142;28;20037;-46
2023/03/30 04:33:37;;;;;;;13.18;2.60;;;11.80;99.90;;;11.34;100.00;96718.22;4998994;28;20164;-46
2023/03/30 04:36:04;;;;;;;11.68;2.30;;;11.80;99.90;;;11.32;100.00;96710.38;5004728;28;20068;-46
2023/03/30 04:38:30;;;;;;;10.88;2.60;;;11.80;99.90;;;11.34;100.00;96711.16;5000994;28;20028;-47
2023/03/30 04:40:56;;;;;;;13.05;3.00;;;11.70;99.90;;;11.33;100.00;96700.69;5000867;28;20033;-46
2023/03/30 04:43:23;;;;;;;10.77;2.92;;;11.80;99.90;;;11.33;100.00;96701.53;4997734;28;20086;-46
2023/03/30 04:45:50;;;;;;;9.60;2.53;;;11.80;99.90;;;11.38;100.00;96698.66;4991411;28;20029;-47
2023/03/30 04:48:18;;;;;;;9.40;2.42;;;11.80;99.90;;;11.36;100.00;96687.31;4996083;28;20033;-47
2023/03/30 04:50:46;;;;;;;12.85;2.10;;;11.80;99.90;;;11.37;100.00;96689.88;5000569;28;20052;-46
2023/03/30 04:53:15;;;;;;;11.48;2.30;;;11.80;99.90;;;11.35;100.00;96685.63;4998716;28;20104;-46
2023/03/30 04:55:46;;;;;;;13.63;2.58;;;11.80;99.90;;;11.37;100.00;96696.94;4995818;28;20045;-51
2023/03/30 04:58:12;;;;;;;10.30;2.70;;;11.70;99.90;;;11.37;100.00;96699.59;4991617;28;20033;-47
2023/03/30 05:00:38;;;;;;;9.52;2.47;;;11.70;99.90;;;11.37;100.00;96691.66;4984616;28;20037;-46
2023/03/30 05:03:04;;;;;;;16.60;2.63;;;11.80;99.90;;;11.40;100.00;96694.16;4993085;28;20052;-48
2023/03/30 05:05:30;;;;;;;9.68;2.72;;;11.80;99.90;;;11.41;100.00;96703.78;4995814;28;20111;-47
2023/03/30 05:07:57;;;;;;;15.23;2.63;;;11.80;99.90;;;11.46;100.00;96714.94;4998884;28;20441;-46
2023/03/30 05:10:23;;;;;;;9.88;2.55;;;11.80;99.90;;;11.48;100.00;96701.66;5002699;28;20033;-46
2023/03/30 05:12:48;;;;;;;11.23;2.60;;;11.90;99.90;;;11.52;100.00;96684.72;4997079;28;20033;-46
2023/03/30 05:15:14;;;;;;;9.73;2.55;;;11.90;99.90;;;11.57;100.00;96683.56;5000119;28;20503;-48
2023/03/30 05:17:40;;;;;;;8.10;2.92;;;12.00;99.90;;;11.62;100.00;96678.88;4998657;28;20041;-52
2023/03/30 05:20:07;;;;;;;11.32;2.50;;;12.00;99.90;;;11.67;100.00;96672.53;4999635;28;20039;-49
2023/03/30 05:22:33;;;;;;;9.85;2.67;;;12.10;99.90;;;11.66;100.00;96666.38;5006349;28;20029;-48
2023/03/30 05:25:00;;;;;;;12.20;3.10;;;12.10;99.90;;;11.59;100.00;96668.50;4983754;28;20052;-48
2023/03/30 05:27:25;;;;;;;12.75;3.13;;;12.10;99.90;;;11.68;100.00;96674.22;4997567;28;20444;-49
2023/03/30 05:29:52;;;;;;;12.98;2.92;;;12.10;99.90;;;11.71;100.00;96669.63;5003719;28;20048;-46
2023/03/30 05:32:17;;;;;;;12.32;3.00;;;12.10;99.90;;;11.71;100.00;96660.84;5000088;28;20509;-48
2023/03/30 05:34:43;;;;;;;11.93;2.97;;;12.10;99.90;;;11.72;100.00;96651.97;5001573;28;20061;-46
2023/03/30 05:37:09;;;;;;;9.85;3.38;;;12.10;99.90;;;11.63;100.00;96637.50;5004582;28;20075;-49
2023/03/30 05:39:35;;;;;;;9.23;2.55;;;12.10;99.90;;;11.72;100.00;96660.78;4999966;28;20119;-50
2023/03/30 05:42:01;;;;;;;8.38;2.15;;;12.10;99.90;;;11.76;100.00;96650.91;4982047;28;20037;-50
2023/03/30 05:44:27;;;;;;;8.88;2.70;;;12.20;99.90;;;11.78;100.00;96643.75;5002631;28;20033;-47
2023/03/30 05:46:52;;;;;;;12.95;3.17;;;12.20;99.90;;;11.78;100.00;96647.22;5003788;28;20033;-48
2023/03/30 05:49:18;;;;;;;15.60;3.95;;;12.20;99.90;;;11.84;100.00;96653.97;4991407;28;20135;-51
2023/03/30 05:51:44;;;;;;;12.55;2.92;;;12.20;99.90;;;11.85;100.00;96669.75;5007692;28;20048;-50
2023/03/30 05:54:11;;;;;;;14.70;3.45;;;12.30;99.90;;;11.89;100.00;96672.22;5005971;28;20033;-50
2023/03/30 05:56:37;;;;;;;12.43;3.25;;;12.30;99.90;;;11.90;100.00;96674.81;5006211;28;20022;-49
2023/03/30 05:59:04;;;;;;;15.25;3.58;;;12.30;99.90;;;11.96;100.00;96682.41;5004303;28;20025;-50
2023/03/30 06:01:30;;;;;;;13.82;3.03;;;12.30;99.90;;;12.11;100.00;96688.63;5008294;28;20030;-51
2023/03/30 06:03:55;;;;;;;15.30;3.63;;;12.40;99.90;;;12.15;100.00;96700.78;5002362;28;20049;-50
2023/03/30 06:06:21;;;;;;;10.68;3.00;;;12.50;99.90;;;12.18;100.00;96707.69;5001988;28;20118;-51
2023/03/30 06:08:48;;;;;;;17.10;3.20;;;12.50;99.90;;;12.21;100.00;96718.09;5003897;28;20029;-50
2023/03/30 06:11:14;;;;;;;9.88;2.85;;;12.60;99.90;;;12.24;100.00;96723.22;5004001;28;20018;-51
2023/03/30 06:13:40;;;;;;;17.55;3.83;;;12.60;99.90;;;12.29;100.00;96747.63;4985928;28;20137;-51
2023/03/30 06:16:06;;;;;;;11.73;3.13;;;12.70;99.90;;;12.33;100.00;96756.25;5005271;28;20481;-49
2023/03/30 06:18:32;;;;;;;9.27;2.75;;;12.70;99.90;;;12.32;100.00;96755.34;5008203;28;20034;-51
2023/03/30 06:21:01;;;;;;;11.20;2.70;;;12.70;99.90;;;12.30;100.00;96775.75;5011997;28;20041;-48
2023/03/30 06:23:27;;;;;;;12.77;2.88;;;12.70;99.90;;;12.31;100.00;96773.94;5006188;28;20045;-50
2023/03/30 06:25:54;;;;;;;19.02;3.70;;;12.70;99.90;;;12.25;100.00;96771.66;5007496;28;20025;-50
2023/03/30 06:28:21;;;;;;;9.98;2.78;;;12.70;99.90;;;12.29;100.00;96771.41;5001980;28;20026;-49
2023/03/30 06:30:48;;;;;;;15.23;3.40;;;12.70;99.90;;;12.34;100.00;96769.34;5005828;28;20026;-50
2023/03/30 06:33:17;;;;;;;12.98;2.78;;;12.70;99.90;;;12.36;100.00;96767.50;5001214;28;20026;-50
2023/03/30 06:35:48;;;;;;;12.93;3.35;;;12.80;99.90;;;12.36;100.00;96770.16;5006090;28;20083;-50
2023/03/30 06:38:16;;;;;;;15.35;2.85;;;12.80;99.90;;;12.38;100.00;96776.19;5007620;28;20101;-50
2023/03/30 06:40:42;;;;;;;11.80;3.35;;;12.80;99.90;;;12.32;100.00;96776.50;5010222;28;20095;-49
2023/03/30 06:43:16;;;;;;;19.48;3.83;;;12.80;99.90;;;12.41;100.00;96791.88;5005209;28;20034;-50
2023/03/30 06:45:42;;;;;;;17.52;3.40;;;12.80;99.90;;;12.52;100.00;96803.69;5009339;28;20041;-52
2023/03/30 06:48:08;;;;;;;12.93;3.03;;;12.80;99.90;;;12.44;100.00;96805.91;5009701;28;20052;-50
2023/03/30 06:50:35;;;;;;;20.50;3.55;;;12.90;99.90;;;12.45;100.00;96823.44;5005930;28;20512;-49
2023/03/30 06:53:01;;;;;;;10.50;2.88;;;12.90;99.90;;;12.39;100.00;96838.72;5007104;28;20030;-52
2023/03/30 06:55:27;;;;;;;10.57;3.25;;;12.80;99.90;;;12.36;100.00;96836.25;5007820;28;20040;-50
2023/03/30 06:57:52;;;;;;;14.00;2.95;;;12.80;99.90;;;12.35;100.00;96847.75;5003475;28;20056;-51
2023/03/30 07:00:19;;;;;;;14.07;3.13;;;12.80;99.90;;;12.33;100.00;96852.25;5001755;28;20034;-51
2023/03/30 07:02:44;;;;;;;15.98;3.78;;;12.80;99.90;;;12.34;100.00;96847.81;5004250;28;20355;-50
2023/03/30 07:05:11;;;;;;;21.63;4.22;;;12.80;99.90;;;12.34;100.00;96863.69;5008065;28;20044;-49
2023/03/30 07:07:38;;;;;;;20.98;3.08;;;12.80;99.90;;;12.31;100.00;96880.59;5002571;28;20029;-49
2023/03/30 07:10:08;;;;;;;14.50;3.42;;;12.70;99.90;;;12.31;100.00;96885.00;5005282;28;20037;-49
2023/03/30 07:12:36;;;;;;;12.75;3.25;;;12.70;99.90;;;12.30;100.00;96884.16;5007966;28;20033;-49
2023/03/30 07:15:02;;;;;;;16.45;3.45;;;12.70;99.90;;;12.21;100.00;96866.97;4996982;28;20406;-49
2023/03/30 07:17:28;;;;;;;15.00;4.10;;;12.60;99.90;;;12.07;100.00;96872.13;5003192;28;20057;-50
2023/03/30 07:19:53;;;;;;;17.17;3.25;;;12.50;99.90;;;11.98;100.00;96884.00;5009012;28;20604;-50
2023/03/30 07:22:19;;;;;;;23.88;4.70;;;12.40;99.90;;;11.87;100.00;96893.41;5006882;28;20361;-50
2023/03/30 07:24:45;;;;;;;17.40;4.07;;;12.20;99.90;;;11.76;100.00;96896.56;5004351;28;20085;-46
2023/03/30 07:27:10;;;;;;;15.80;3.55;;;12.10;99.90;;;11.73;100.00;96909.91;5002466;28;20033;-53
2023/03/30 07:29:36;;;;;;;23.90;4.07;;;12.10;99.90;;;11.61;100.00;96900.81;5013085;28;20498;-51
2023/03/30 07:32:02;;;;;;;13.60;3.65;;;12.00;99.90;;;11.54;100.00;96918.75;4997681;28;20033;-49
2023/03/30 07:34:28;;;;;;;11.57;3.97;;;11.90;99.90;;;11.46;100.00;96912.97;5004334;28;20409;-48
2023/03/30 07:36:54;;;;;;;21.70;4.82;;;11.90;99.90;;;11.36;100.00;96891.47;5002354;28;20034;-48
2023/03/30 07:39:20;;;;;;;10.90;3.22;;;11.80;99.90;;;11.27;100.00;96876.06;4986775;28;20030;-49
2023/03/30 07:41:46;;;;;;;21.33;4.85;;;11.70;99.90;;;11.23;100.00;96892.94;5001301;28;20076;-49
2023/03/30 07:44:12;;;;;;;17.23;5.38;;;11.60;99.90;;;11.12;100.00;96868.88;5003915;28;20021;-49
2023/03/30 07:46:38;;;;;;;13.38;3.97;;;11.50;99.90;;;11.06;100.00;96865.59;5001774;28;20041;-47
2023/03/30 07:49:03;;;;;;;12.98;5.30;;;11.50;99.90;;;11.03;100.00;96876.28;5002893;28;20418;-50
2023/03/30 07:51:29;;;;;;;14.20;3.80;;;11.40;99.90;;;10.99;100.00;96876.50;5003131;28;20021;-51
2023/03/30 07:53:55;;;;;;;13.43;3.78;;;11.40;99.90;;;10.94;100.00;96873.22;5005001;28;20048;-48
2023/03/30 07:56:21;;;;;;;12.05;3.90;;;11.40;99.90;;;10.90;100.00;96880.44;5007814;28;20041;-51
2023/03/30 07:58:46;;;;;;;11.15;3.10;;;11.30;99.90;;;10.91;100.00;96870.72;4996339;28;20463;-51
2023/03/30 08:01:12;;;;;;;7.65;2.42;;;11.30;99.90;;;10.91;100.00;96866.31;5003609;28;20045;-49
2023/03/30 08:03:38;;;;;;;9.68;2.83;;;11.30;99.90;;;10.99;100.00;96858.03;5002516;28;20587;-50
2023/03/30 08:06:05;;;;;;;14.85;4.13;;;11.40;99.90;;;11.11;100.00;96891.78;5001077;28;20398;-49
2023/03/30 08:08:32;;;;;;;10.55;3.17;;;11.50;99.90;;;11.18;100.00;96890.56;5005542;28;20469;-46
2023/03/30 08:10:58;;;;;;;10.20;3.20;;;11.60;99.90;;;11.23;100.00;96907.03;5003904;28;20061;-49
2023/03/30 08:13:24;;;;;;;14.95;3.95;;;11.60;99.90;;;11.20;100.00;96922.16;5004860;28;20030;-51
2023/03/30 08:15:51;;;;;;;11.50;3.28;;;11.60;99.90;;;11.16;100.00;96934.63;5000874;28;20434;-49
2023/03/30 08:18:17;;;;;;;15.10;3.60;;;11.60;99.90;;;11.10;100.00;96948.09;5000787;28;20144;-49
2023/03/30 08:20:44;;;;;;;12.57;3.60;;;11.50;99.90;;;11.00;100.00;96967.91;5032997;22;20106;-38
2023/03/30 08:23:10;;;;;;;9.00;3.50;;;11.50;99.90;;;10.93;100.00;96974.41;5035401;28;20079;-39
2023/03/30 08:25:37;;;;;;;14.82;4.10;;;11.40;99.90;;;10.87;100.00;96968.50;5035704;28;20029;-39
2023/03/30 08:28:04;;;;;;;14.88;3.30;;;11.30;99.90;;;10.86;100.00;96953.56;5017917;28;20041;-39
2023/03/30 08:30:30;;;;;;;11.23;3.50;;;11.30;99.90;;;10.85;100.00;96953.66;5028340;28;20570;-39
2023/03/30 08:32:56;;;;;;;14.07;3.88;;;11.30;99.90;;;10.81;100.00;96933.63;5012792;28;20029;-38
2023/03/30 08:35:22;;;;;;;10.50;4.15;;;11.30;99.90;;;10.90;100.00;96938.47;5004996;28;20783;-39
2023/03/30 08:37:48;;;;;;;15.00;4.10;;;11.30;99.90;;;10.99;100.00;96939.84;5009781;28;20064;-38
2023/03/30 08:40:14;;;;;;;12.65;3.30;;;11.40;99.90;;;11.10;100.00;96934.91;5011550;28;20037;-39
2023/03/30 08:43:01;;;;;;;8.98;3.42;;;11.50;99.90;;;11.30;100.00;96935.75;5015993;28;20029;-39
2023/03/30 08:45:38;;;;;;;7.25;2.92;;;11.60;99.90;;;11.39;100.00;96919.47;5012630;28;20084;-38
2023/03/30 08:48:14;;;;;;;9.55;2.65;;;11.80;99.90;;;11.44;100.00;96915.69;5000184;28;20117;-39
2023/03/30 08:50:42;;;;;;;6.03;2.95;;;11.80;99.90;;;11.48;100.00;96899.69;4999313;28;20561;-38
2023/03/30 08:53:08;;;;;;;7.85;2.72;;;11.80;99.90;;;11.52;100.00;96906.53;5000797;28;20022;-38
2023/03/30 08:55:52;;;;;;;5.40;2.33;;;11.90;99.90;;;11.55;100.00;96899.31;4998721;28;20036;-38
2023/03/30 08:58:43;;;;;;;6.05;3.08;;;11.90;99.90;;;11.48;100.00;96889.13;5001033;28;20060;-39
2023/03/30 09:01:24;;;;;;;10.88;3.22;;;11.90;99.90;;;11.42;100.00;96864.75;5015099;28;20159;-39
2023/03/30 09:04:06;;;;;;;11.38;3.08;;;11.80;99.90;;;11.35;100.00;96875.69;5012088;28;20426;-38
2023/03/30 09:06:50;;;;;;;12.20;2.97;;;11.80;99.90;;;11.35;100.00;96873.88;4995870;28;20037;-38
2023/03/30 09:09:24;;;;;;;8.00;3.05;;;11.70;99.90;;;11.34;100.00;96855.47;5015917;28;20037;-38
2023/03/30 09:12:05;;;;;;;7.50;3.20;;;11.80;99.90;;;11.43;100.00;96849.75;5013261;28;20064;-39
2023/03/30 09:14:38;;;;;;;7.60;2.92;;;11.80;99.90;;;11.48;100.00;96853.03;4995305;28;20041;-39
2023/03/30 09:17:14;;;;;;;;;;;11.90;99.90;;;11.57;100.00;96857.84;4991821;28;20032;-38
2023/03/30 09:20:08;;;;;;;6.30;2.00;;;12.00;99.90;;;11.56;100.00;96864.06;5013869;28;19927;-38
2023/03/30 09:22:44;;;;;;;8.65;2.00;;;12.00;99.90;;;11.56;100.00;96861.44;4990835;28;20060;-39
2023/03/30 09:25:35;;;;;;;8.45;2.22;;;12.00;99.90;;;11.62;100.00;96850.56;5014925;28;20060;-39
2023/03/30 09:28:25;;;;;;;7.22;2.42;;;12.10;99.90;;;11.80;100.00;96853.22;5001574;28;20110;-39
2023/03/30 09:31:18;;;;;;;7.18;1.77;;;12.20;99.90;;;11.90;100.00;96853.59;5013318;28;20048;-39
2023/03/30 09:34:02;;;;;;;5.30;2.40;;;12.40;99.90;;;12.03;100.00;96866.13;5012845;28;20044;-39
2023/03/30 09:37:02;;;;;;;3.60;1.85;;;12.50;99.90;;;12.12;100.00;96866.59;5012896;28;20040;-38
2023/03/30 09:39:30;;;;;;;3.17;1.65;;;12.70;99.90;;;12.29;100.00;96879.81;5009979;28;20159;-39
2023/03/30 09:42:13;;;;;;;4.45;1.95;;;12.80;99.90;;;12.40;100.00;96879.25;5010179;28;20087;-38
2023/03/30 09:44:50;;;;;;;5.82;1.80;;;12.90;99.90;;;12.53;100.00;96897.97;5010047;28;20033;-39
2023/03/30 09:47:27;;;;;;;5.18;1.73;;;13.00;99.90;;;12.52;100.00;96910.31;5009535;28;20385;-39
2023/03/30 09:49:58;;;;;;;6.05;2.65;;;13.10;99.90;;;12.57;100.00;96920.66;5016249;28;20401;-39
2023/03/30 09:52:27;;;;;;;6.93;1.88;;;13.10;99.90;;;12.54;100.00;96928.75;5019324;28;20053;-39
2023/03/30 09:54:53;;;;;;;5.30;1.95;;;13.10;99.90;;;12.48;100.00;96924.63;5010141;28;20029;-39
2023/03/30 09:57:27;;;;;;;4.72;1.60;;;13.00;99.90;;;12.38;100.00;96931.34;5010448;28;20409;-39
2023/03/30 09:59:54;;;;;;;5.78;1.60;;;12.90;99.90;;;12.35;100.00;96934.16;5013446;28;20049;-39
2023/03/30 10:02:23;;;;;;;4.95;1.70;;;12.80;99.90;;;12.20;100.00;96904.94;5006923;28;20659;-39
2023/03/30 10:04:52;;;;;;;3.45;2.05;;;12.80;99.90;;;12.33;100.00;96928.09;5017901;28;20041;-39
2023/03/30 10:07:40;;;;;;;6.15;2.03;;;12.80;99.90;;;12.51;100.00;96919.19;5009590;28;20033;-39
2023/03/30 10:10:34;;;;;;;5.40;1.98;;;13.00;99.90;;;13.01;100.00;96919.22;4998438;28;20550;-39
2023/03/30 10:13:14;;;;;;;7.35;1.90;;;13.40;99.90;;;13.44;100.00;96928.34;4998020;28;20493;-38
2023/03/30 10:15:44;;;;;;;5.82;2.00;;;13.90;99.90;;;13.66;100.00;96927.13;5009606;28;20033;-39
2023/03/30 10:18:36;;;;;;;5.30;1.92;;;14.20;99.90;;;13.92;100.00;96926.47;5012447;28;20029;-38
2023/03/30 10:21:26;;;;;;;4.70;2.08;;;14.40;99.90;;;14.25;100.00;96922.81;5013583;28;20041;-39
2023/03/30 10:24:23;;;;;;;5.00;1.83;;;14.70;99.90;;;14.59;100.00;96909.31;5013911;28;20501;-39
2023/03/30 10:26:57;;;;;;;4.80;1.95;;;15.10;99.90;;;14.58;100.00;96900.50;5009885;28;20049;-39
2023/03/30 10:29:27;;;;;;;4.18;2.08;;;15.10;99.90;;;14.54;100.00;96908.75;5010526;28;20087;-38